Owensburg, IN

6:54 AM EST on December 07, 2016 (GMT -0500)
APRSWXNET | | Change Station

Elev 764 ft 38.83 °N, 86.80 °W | Updated 25 minutes ago

Clear
Clear
28 °F
Feels Like 28 °F
N
0
Wind Variable Wind from WNW
Gusts 0.0 mph

Today
High -- | Low -- °F
--% Chance of Precip.
Yesterday
High -- | Low -- °F
Precip. -- in
Pressure 30.13 in
Visibility 10.0 miles
Clouds Clear
Windchill 28 °F
Dew Point 25 °F
Humidity 88%
Rainfall in
Snow Depth Not available.
7:52 AM 5:24 PM
First Quarter, 51% visible
METAR KBMG 071053Z AUTO 00000KT 10SM CLR M04/M06 A3010 RMK AO2 SLP201 T10391061
Pressure 30.13 in
Visibility 10.0 miles
Clouds Clear
Windchill 28 °F
Dew Point 25 °F
Humidity 88%
Rainfall in
Snow Depth Not available.
7:52 AM 5:24 PM
First Quarter, 51% visible
METAR KBMG 071053Z AUTO 00000KT 10SM CLR M04/M06 A3010 RMK AO2 SLP201 T10391061

10-Day Weather Forecast

Almanac

Astronomy

Dec. 07, 2016 Rise Set
Actual Time
Civil Twilight
Nautical Twilight
Astronomical Twilight
Moon
Length of Visible Light
Length of Day
Tomorrow will be .
, % of the Moon is Illuminated

Today's Extremes

State Highs State Lows

Community

WunderPhotos

Upload Photos

1,956,111 photos uploaded!

WunderBlog® & News

Nearby

Air Quality

  Air Quality AQ Index Pollutant
Not available.

Snow Depth

Station Depth Elevation

Earthquake Activity

City Distance Mag. Time & Date
Minimum magnitude displayed is 2.5.

Coastal Water Temperatures

Place Temperature

Stations

Nearby Weather Stations

Station Location Temp. Windchill Dew Point Humidity Wind Precip. Elev Updated Type
                   

Watches & Warnings

There are currently no watches in effect.